Terminal Aerodrome Forecast
Issued by NWS Wichita, KS

Home | Current Version | Previous Version | Graphics & Text | Print | Product List | Glossary On
Versions: 1 2 3 4 5 6 7 8 9 10 11 12 13 14 15 16
000
FTUS43 KICT 220524
TAFICT
TAF
KICT 220524Z 2206/2306 35005KT P6SM SCT060 OVC100
     FM220700 01008KT P6SM OVC100
     FM221400 02005KT P6SM SCT030 BKN200
     FM221800 02005KT P6SM BKN040
     FM230200 08005KT P6SM SCT040 SCT200=

USA.gov is the U.S. government's official web portal to all federal, state and local government web resources and services.